This is the latest recevied weather packets stored in our database for station/object WMKC. If no packets are shown the sender has not sent any weather packets the latest 10 day(s).
| Time | Temp. | Humidity | Pressure | Rain* | Wind** | Luminosity | Snow |
|---|---|---|---|---|---|---|---|
| 1777432217 | 32.78° C | 55% | 1010 hPa | - | - | - | - |
| 1777428628 | 31.67° C | 55% | 1011 hPa | - | - | - | - |
| 1777425017 | 28.89° C | 70% | 1010 hPa | - | - | - | - |
| 1777421421 | 26.67° C | 78% | 1009 hPa | - | - | - | - |
| 1777417821 | 25.56° C | 78% | 1008 hPa | - | - | - | - |
| 1777414227 | 25.56° C | 78% | 1008 hPa | - | - | - | - |
| 1777410616 | 26.67° C | 74% | 1007 hPa | - | - | - | - |
| 1777407021 | 26.67° C | 78% | 1008 hPa | - | - | - | - |
| 1777403419 | 27.78° C | 74% | 1008 hPa | - | - | - | - |
| 1777399816 | 28.89° C | 70% | 1008 hPa | - | - | - | - |
| 1777396227 | 28.89° C | 70% | 1009 hPa | - | - | - | - |
| 1777392621 | 28.89° C | 74% | 1009 hPa | - | - | - | - |
| 1777389016 | 28.89° C | 70% | 1009 hPa | - | - | - | - |
| 1777385416 | 28.89° C | 70% | 1009 hPa | - | - | - | - |
| 1777381826 | 30° C | 66% | 1008 hPa | - | - | - | - |
| 1777378215 | 30° C | 70% | 1007 hPa | - | - | - | - |
| 1777374615 | 30.56° C | 62% | 1006 hPa | - | - | - | - |
| 1777371016 | 30.56° C | 62% | 1006 hPa | - | - | - | - |
| 1777367426 | 31.67° C | 62% | 1006 hPa | - | - | - | - |
| 1777363815 | 32.78° C | 59% | 1006 hPa | - | - | - | - |
| 1777360215 | 32.78° C | 59% | 1007 hPa | - | - | - | - |
| 1777356615 | 35° C | 49% | 1008 hPa | - | - | - | - |
| 1777353026 | 35° C | 46% | 1009 hPa | - | - | - | - |
| 1777349414 | 33.89° C | 49% | 1009 hPa | - | - | - | - |
| 1777345815 | 32.78° C | 52% | 1009 hPa | - | - | - | - |
* Rain since midnight (hover to see other rain measurements)
** Current wind speed in m/s (hover to see current wind gust speed)